createdAt,value
2018-09-09T00:01:28.951Z,77.30
2018-09-09T00:03:58.579Z,77.70
2018-09-09T00:06:27.909Z,78.00
2018-09-09T00:09:01.168Z,78.10
2018-09-09T00:11:29.982Z,78.50
2018-09-09T00:13:58.686Z,78.70
2018-09-09T00:16:27.355Z,79.00
2018-09-09T00:18:56.849Z,79.30
2018-09-09T00:21:28.324Z,79.70
2018-09-09T00:23:57.680Z,80.10
2018-09-09T00:26:27.216Z,80.60
2018-09-09T00:28:55.943Z,81.00
2018-09-09T00:31:24.590Z,81.40
2018-09-09T00:33:53.221Z,81.70
2018-09-09T00:36:21.938Z,81.70
2018-09-09T00:38:54.578Z,81.60
2018-09-09T00:41:25.255Z,81.50
2018-09-09T00:43:53.912Z,81.80
2018-09-09T00:46:22.558Z,81.60
2018-09-09T00:48:55.784Z,81.70
2018-09-09T00:51:31.704Z,81.80
2018-09-09T00:54:04.445Z,81.60
2018-09-09T00:56:33.145Z,81.90
2018-09-09T00:59:04.768Z,82.30
2018-09-09T01:01:38.018Z,82.60
2018-09-09T01:04:07.435Z,83.00
2018-09-09T01:06:38.364Z,83.50
2018-09-09T01:09:10.957Z,83.70
2018-09-09T01:11:43.550Z,84.10
2018-09-09T01:14:14.776Z,83.80
2018-09-09T01:16:46.227Z,83.10
2018-09-09T01:19:15.112Z,82.00
2018-09-09T01:21:44.109Z,82.20
2018-09-09T01:24:14.318Z,82.70
2018-09-09T01:26:45.175Z,83.00
2018-09-09T01:29:15.377Z,83.20
2018-09-09T01:31:44.708Z,83.10
2018-09-09T01:34:14.599Z,83.50
2018-09-09T01:36:43.248Z,83.70
2018-09-09T01:39:12.614Z,83.90
2018-09-09T01:41:42.079Z,83.80
2018-09-09T01:44:10.742Z,83.40
2018-09-09T01:46:44.377Z,83.00
2018-09-09T01:49:17.509Z,83.80
2018-09-09T01:51:47.393Z,84.30
2018-09-09T01:54:16.052Z,84.50
2018-09-09T01:56:44.749Z,84.30
2018-09-09T01:59:13.407Z,83.90
2018-09-09T02:01:42.113Z,83.20
2018-09-09T02:04:10.737Z,82.60
2018-09-09T02:06:39.376Z,82.60
2018-09-09T02:09:08.023Z,82.90
2018-09-09T02:11:37.362Z,83.70
2018-09-09T02:14:07.395Z,84.60
2018-09-09T02:16:42.436Z,85.00
2018-09-09T02:19:12.107Z,85.30
2018-09-09T02:21:41.349Z,85.70
2018-09-09T02:24:10.053Z,85.80
2018-09-09T02:26:39.067Z,86.00
2018-09-09T02:29:08.320Z,84.70
2018-09-09T02:31:36.998Z,84.00
2018-09-09T02:34:06.959Z,84.00
2018-09-09T02:36:36.186Z,84.00
2018-09-09T02:39:06.561Z,83.80
2018-09-09T02:41:35.652Z,84.10
2018-09-09T02:44:05.316Z,84.40
2018-09-09T02:46:33.982Z,84.70
2018-09-09T02:49:02.651Z,85.20
2018-09-09T02:51:31.485Z,84.80
2018-09-09T02:54:00.793Z,84.70
2018-09-09T02:56:29.528Z,85.10
2018-09-09T02:59:02.129Z,85.20
2018-09-09T03:01:31.717Z,85.60
2018-09-09T03:04:01.230Z,85.80
2018-09-09T03:06:31.397Z,85.70
2018-09-09T03:09:00.095Z,86.70
2018-09-09T03:11:29.611Z,86.20
2018-09-09T03:13:59.006Z,87.00
2018-09-09T03:16:27.677Z,87.60
2018-09-09T03:18:57.824Z,87.60
2018-09-09T03:21:26.479Z,88.00
2018-09-09T03:23:55.161Z,88.00
2018-09-09T03:26:23.896Z,87.70
2018-09-09T03:28:52.701Z,87.10
2018-09-09T03:31:21.346Z,86.80
2018-09-09T03:33:50.043Z,86.50
2018-09-09T03:36:18.745Z,85.90
2018-09-09T03:38:47.429Z,86.50
2018-09-09T03:41:16.732Z,86.90
2018-09-09T03:43:45.885Z,87.60
2018-09-09T03:46:14.551Z,88.60
2018-09-09T03:48:44.834Z,89.20
2018-09-09T03:51:15.427Z,89.80
2018-09-09T03:53:46.141Z,90.20
2018-09-09T03:56:15.313Z,90.30
2018-09-09T03:58:44.034Z,90.30
2018-09-09T04:01:12.749Z,90.20
2018-09-09T04:03:41.422Z,90.30
2018-09-09T04:06:10.061Z,90.00
2018-09-09T04:08:38.771Z,90.00
2018-09-09T04:11:08.462Z,90.10
2018-09-09T04:13:42.614Z,90.40
2018-09-09T04:16:12.545Z,90.50
2018-09-09T04:18:42.423Z,90.60
2018-09-09T04:21:11.111Z,90.60
2018-09-09T04:23:41.021Z,90.50
2018-09-09T04:26:09.760Z,90.30
2018-09-09T04:28:39.005Z,90.50
2018-09-09T04:31:08.451Z,90.20
2018-09-09T04:33:37.204Z,90.50
2018-09-09T04:36:06.244Z,91.00
2018-09-09T04:38:39.078Z,90.80
2018-09-09T04:41:08.016Z,91.00
2018-09-09T04:43:36.742Z,91.40
2018-09-09T04:46:05.440Z,91.50
2018-09-09T04:48:35.066Z,91.80
2018-09-09T04:51:04.613Z,91.90
2018-09-09T04:53:36.671Z,92.10
2018-09-09T04:56:08.069Z,92.00
2018-09-09T04:58:38.644Z,92.50
2018-09-09T05:01:08.152Z,92.10
2018-09-09T05:03:36.811Z,92.10
2018-09-09T05:06:05.552Z,92.10
2018-09-09T05:08:34.225Z,92.00
2018-09-09T05:11:03.871Z,92.10
2018-09-09T05:13:33.469Z,92.20
2018-09-09T05:16:04.919Z,92.30
2018-09-09T05:18:34.230Z,92.20
2018-09-09T05:21:02.884Z,92.40
2018-09-09T05:23:31.519Z,92.50
2018-09-09T05:26:03.198Z,92.70
2018-09-09T05:28:32.504Z,92.90
2018-09-09T05:31:02.920Z,93.20
2018-09-09T05:33:31.620Z,93.40
2018-09-09T05:36:00.382Z,93.50
2018-09-09T05:38:31.213Z,93.60
2018-09-09T05:41:00.236Z,93.60
2018-09-09T05:43:29.496Z,93.60
2018-09-09T05:46:00.951Z,93.60
2018-09-09T05:48:29.592Z,93.60
2018-09-09T05:51:00.058Z,93.60
2018-09-09T05:53:30.268Z,93.70
2018-09-09T05:55:58.964Z,93.90
2018-09-09T05:58:28.732Z,93.50
2018-09-09T06:01:00.194Z,93.50
2018-09-09T06:03:28.888Z,94.00
2018-09-09T06:05:59.333Z,93.40
2018-09-09T06:08:28.142Z,93.30
2018-09-09T06:10:56.799Z,93.30
2018-09-09T06:13:32.224Z,93.70
2018-09-09T06:16:00.857Z,93.80
2018-09-09T06:18:32.665Z,94.00
2018-09-09T06:21:02.327Z,94.20
2018-09-09T06:23:32.303Z,94.30
2018-09-09T06:26:01.842Z,94.40
2018-09-09T06:28:31.852Z,94.20
2018-09-09T06:31:00.709Z,94.00
2018-09-09T06:33:29.561Z,94.00
2018-09-09T06:36:01.066Z,93.90
2018-09-09T06:38:30.732Z,94.00
2018-09-09T06:40:59.380Z,94.10
2018-09-09T06:43:28.071Z,94.10
2018-09-09T06:45:56.720Z,94.20
2018-09-09T06:48:25.394Z,94.20
2018-09-09T06:50:54.163Z,93.80
2018-09-09T06:53:22.860Z,93.10
2018-09-09T06:55:51.520Z,92.10
2018-09-09T06:58:20.200Z,91.00
2018-09-09T07:00:48.857Z,88.90
2018-09-09T07:03:17.824Z,86.60
2018-09-09T07:05:46.480Z,83.70
2018-09-09T07:08:15.094Z,81.00
2018-09-09T07:10:43.759Z,78.20
2018-09-09T07:13:12.472Z,77.20
2018-09-09T07:15:41.141Z,74.90
2018-09-09T07:18:09.792Z,72.80
2018-09-09T07:20:38.480Z,71.20
2018-09-09T07:23:07.176Z,70.10
2018-09-09T07:25:35.830Z,70.10
2018-09-09T07:28:04.529Z,70.60
2018-09-09T07:30:33.215Z,69.50
2018-09-09T07:33:01.921Z,69.70
2018-09-09T07:35:30.532Z,69.20
2018-09-09T07:37:59.160Z,69.00
2018-09-09T07:40:27.863Z,69.70
2018-09-09T07:42:56.488Z,69.10
2018-09-09T07:45:25.123Z,69.10
2018-09-09T07:47:53.858Z,68.50
2018-09-09T07:50:22.436Z,68.30
2018-09-09T07:52:51.084Z,68.30
2018-09-09T07:55:19.719Z,67.50
2018-09-09T07:57:48.320Z,67.50
2018-09-09T08:00:16.971Z,66.50
2018-09-09T08:02:45.679Z,66.40
2018-09-09T08:05:14.341Z,65.80
2018-09-09T08:07:42.979Z,66.70
2018-09-09T08:10:11.621Z,65.90
2018-09-09T08:12:42.428Z,65.30
2018-09-09T08:15:11.069Z,65.00
2018-09-09T08:17:39.809Z,64.80
2018-09-09T08:20:08.497Z,64.00
2018-09-09T08:22:38.016Z,63.70
2018-09-09T08:25:06.809Z,63.60
2018-09-09T08:27:36.064Z,63.10
2018-09-09T08:30:05.275Z,62.90
2018-09-09T08:32:34.012Z,62.50
2018-09-09T08:35:02.677Z,62.80
2018-09-09T08:37:31.317Z,62.50
2018-09-09T08:39:59.945Z,62.00
2018-09-09T08:42:28.572Z,62.00
2018-09-09T08:44:57.199Z,60.90
2018-09-09T08:47:25.860Z,60.20
2018-09-09T08:49:54.860Z,59.70
2018-09-09T08:52:23.502Z,59.30
2018-09-09T08:54:52.180Z,58.60
2018-09-09T08:57:20.842Z,58.20
2018-09-09T08:59:49.497Z,58.10
2018-09-09T09:02:18.144Z,58.00
2018-09-09T09:04:46.772Z,57.40
2018-09-09T09:07:15.474Z,57.30
2018-09-09T09:09:44.112Z,57.00
2018-09-09T09:12:13.159Z,56.80
2018-09-09T09:14:43.612Z,56.00
2018-09-09T09:17:14.634Z,55.20
2018-09-09T09:19:43.248Z,54.20
2018-09-09T09:22:13.309Z,53.60
2018-09-09T09:24:41.959Z,53.70
2018-09-09T09:27:11.184Z,53.90
2018-09-09T09:29:45.448Z,53.70
2018-09-09T09:32:20.192Z,52.60
2018-09-09T09:34:50.317Z,52.30
2018-09-09T09:37:20.624Z,52.40
2018-09-09T09:39:50.918Z,51.50
2018-09-09T09:42:19.714Z,50.70
2018-09-09T09:44:49.432Z,50.10
2018-09-09T09:47:18.840Z,49.90
2018-09-09T09:49:49.681Z,50.40
2018-09-09T09:52:19.531Z,49.70
2018-09-09T09:54:50.212Z,49.00
2018-09-09T09:57:20.448Z,49.20
2018-09-09T09:59:53.900Z,48.20
2018-09-09T10:02:24.004Z,48.00
2018-09-09T10:04:54.532Z,47.80
2018-09-09T10:07:24.203Z,47.90
2018-09-09T10:09:53.680Z,48.20
2018-09-09T10:12:22.328Z,48.40
2018-09-09T10:14:52.336Z,48.60
2018-09-09T10:17:22.852Z,49.40
2018-09-09T10:19:56.199Z,50.30
2018-09-09T10:22:26.900Z,50.60
2018-09-09T10:24:56.962Z,50.50
2018-09-09T10:27:27.082Z,50.40
2018-09-09T10:29:55.964Z,50.20
2018-09-09T10:32:25.187Z,49.90
2018-09-09T10:34:56.048Z,49.60
2018-09-09T10:37:25.985Z,49.90
2018-09-09T10:39:54.907Z,49.90
2018-09-09T10:42:27.396Z,50.20
2018-09-09T10:54:58.139Z,49.80
2018-09-09T10:57:26.891Z,50.10
2018-09-09T10:59:55.504Z,49.80
2018-09-09T11:02:24.549Z,49.70
2018-09-09T11:04:53.175Z,49.90
2018-09-09T11:07:21.812Z,49.80
2018-09-09T11:09:50.438Z,49.40
2018-09-09T11:12:23.578Z,48.80
2018-09-09T11:14:52.208Z,49.40
2018-09-09T11:17:20.839Z,49.20
2018-09-09T11:19:49.468Z,49.40
2018-09-09T11:22:18.424Z,49.50
2018-09-09T11:24:47.056Z,48.70
2018-09-09T11:27:15.781Z,48.30
2018-09-09T11:29:44.454Z,47.20
2018-09-09T11:32:13.043Z,47.10
2018-09-09T11:34:41.956Z,47.40
2018-09-09T11:37:10.704Z,47.20
2018-09-09T11:39:39.372Z,47.50
2018-09-09T11:42:08.437Z,48.00
2018-09-09T11:44:37.637Z,48.40
2018-09-09T11:47:06.344Z,48.60
2018-09-09T11:49:35.159Z,47.90
2018-09-09T11:52:04.076Z,47.50
2018-09-09T11:54:32.741Z,47.90
2018-09-09T11:57:01.492Z,47.90
2018-09-09T11:59:30.456Z,47.50
2018-09-09T12:01:59.138Z,47.30
2018-09-09T12:04:27.818Z,47.00
2018-09-09T12:06:56.525Z,46.80
2018-09-09T12:09:25.170Z,46.80
2018-09-09T12:11:53.842Z,46.30
2018-09-09T12:14:22.821Z,46.60
2018-09-09T12:16:51.511Z,46.80
2018-09-09T12:19:20.138Z,47.20
2018-09-09T12:21:48.824Z,47.30
2018-09-09T12:24:17.493Z,47.20
2018-09-09T12:26:46.140Z,46.80
2018-09-09T12:29:14.832Z,47.20
2018-09-09T12:31:43.806Z,47.10
2018-09-09T12:34:12.593Z,47.00
2018-09-09T12:36:41.211Z,47.40
2018-09-09T12:39:10.172Z,47.20
2018-09-09T12:41:39.135Z,46.90
2018-09-09T12:44:13.159Z,47.00
2018-09-09T12:46:47.960Z,46.90
2018-09-09T12:49:16.807Z,46.90
2018-09-09T12:51:45.556Z,46.90
2018-09-09T12:54:14.207Z,47.00
2018-09-09T12:56:42.848Z,46.90
2018-09-09T12:59:11.517Z,46.60
2018-09-09T13:01:40.204Z,46.80
2018-09-09T13:04:08.847Z,47.10
2018-09-09T13:06:38.366Z,47.10
2018-09-09T13:09:08.424Z,46.90
2018-09-09T13:11:37.415Z,46.60
2018-09-09T13:14:06.388Z,46.90
2018-09-09T13:16:35.779Z,47.20
2018-09-09T13:19:04.817Z,47.60
2018-09-09T13:21:34.114Z,48.80
2018-09-09T13:24:06.898Z,48.60
2018-09-09T13:26:35.728Z,49.30
2018-09-09T13:29:04.653Z,50.30
2018-09-09T13:31:33.316Z,50.70
2018-09-09T13:34:02.075Z,51.00
2018-09-09T13:36:30.730Z,51.00
2018-09-09T13:38:59.467Z,50.60
2018-09-09T13:41:28.147Z,50.30
2018-09-09T13:43:56.873Z,50.30
2018-09-09T13:46:25.519Z,50.50
2018-09-09T13:48:54.220Z,50.60
2018-09-09T13:51:22.908Z,50.70
2018-09-09T13:53:51.555Z,51.00
2018-09-09T13:56:20.204Z,51.20
2018-09-09T13:58:48.898Z,51.60
2018-09-09T14:01:17.528Z,51.90
2018-09-09T14:03:46.203Z,52.00
2018-09-09T14:06:14.983Z,52.40
2018-09-09T14:08:43.612Z,52.70
2018-09-09T14:11:12.399Z,53.30
2018-09-09T14:13:41.065Z,54.00
2018-09-09T14:16:09.703Z,54.20
2018-09-09T14:18:39.381Z,54.20
2018-09-09T14:21:08.034Z,54.30
2018-09-09T14:23:36.699Z,54.70
2018-09-09T14:26:05.392Z,54.90
2018-09-09T14:28:34.060Z,55.40
2018-09-09T14:31:02.744Z,56.00
2018-09-09T14:33:31.462Z,56.40
2018-09-09T14:36:00.125Z,56.40
2018-09-09T14:38:28.803Z,56.30
2018-09-09T14:40:57.466Z,56.30
2018-09-09T14:43:26.080Z,56.20
2018-09-09T14:45:54.749Z,56.10
2018-09-09T14:48:23.431Z,56.40
2018-09-09T14:50:53.438Z,56.70
2018-09-09T14:53:22.324Z,57.00
2018-09-09T14:55:54.836Z,56.80
2018-09-09T14:58:27.426Z,56.80
2018-09-09T15:00:58.235Z,56.90
2018-09-09T15:03:27.111Z,57.20
2018-09-09T15:05:55.897Z,57.50
2018-09-09T15:08:26.635Z,57.60
2018-09-09T15:10:59.823Z,57.60
2018-09-09T15:13:30.658Z,57.70
2018-09-09T15:16:05.580Z,57.80
2018-09-09T15:18:38.972Z,57.70
2018-09-09T15:25:06.596Z,57.40
2018-09-09T15:27:35.228Z,57.80
2018-09-09T15:30:19.564Z,58.10
2018-09-09T15:33:00.289Z,58.10
2018-09-09T15:35:29.384Z,58.20
2018-09-09T15:38:00.497Z,58.20
2018-09-09T15:40:33.000Z,58.30
2018-09-09T15:43:01.715Z,58.20
2018-09-09T15:45:36.620Z,58.00
2018-09-09T15:53:08.353Z,58.10
2018-09-09T15:55:37.069Z,58.70
2018-09-09T15:58:13.299Z,59.30
2018-09-09T16:00:53.712Z,59.20
2018-09-09T16:03:30.950Z,59.70
2018-09-09T16:06:09.661Z,60.00
2018-09-09T16:08:42.592Z,60.20
2018-09-09T16:11:12.008Z,60.60
2018-09-09T16:13:43.793Z,61.10
2018-09-09T16:16:13.267Z,61.60
2018-09-09T16:18:50.793Z,61.90
2018-09-09T16:21:22.959Z,62.10
2018-09-09T16:23:56.656Z,62.20
2018-09-09T16:26:29.751Z,62.40
2018-09-09T16:29:00.240Z,62.40
2018-09-09T16:31:30.182Z,62.50
2018-09-09T16:34:08.628Z,62.60
2018-09-09T16:36:50.008Z,62.50
2018-09-09T16:39:39.017Z,62.70
2018-09-09T16:42:10.267Z,62.80
2018-09-09T16:44:45.684Z,62.90
2018-09-09T16:47:19.232Z,63.10
2018-09-09T16:49:57.238Z,63.30
2018-09-09T16:52:29.592Z,63.70
2018-09-09T16:57:36.132Z,64.50
2018-09-09T17:00:12.188Z,64.60
2018-09-09T17:02:47.700Z,64.90
2018-09-09T17:05:19.178Z,65.20
2018-09-09T17:07:48.300Z,65.70
2018-09-09T17:10:17.528Z,65.90
2018-09-09T17:12:48.356Z,66.20
2018-09-09T17:15:19.853Z,66.40
2018-09-09T17:17:48.580Z,67.00
2018-09-09T17:20:17.488Z,67.20
2018-09-09T17:22:54.562Z,67.30
2018-09-09T17:25:26.515Z,68.10
2018-09-09T17:28:01.670Z,68.10
2018-09-09T17:30:35.468Z,68.00
2018-09-09T17:33:16.884Z,69.00
2018-09-09T17:35:51.607Z,68.90
2018-09-09T17:38:24.632Z,68.90
2018-09-09T17:40:57.855Z,70.00
2018-09-09T17:43:27.068Z,69.10
2018-09-09T17:46:02.995Z,69.90
2018-09-09T17:48:31.715Z,70.10
2018-09-09T17:51:01.022Z,70.30
2018-09-09T17:53:29.729Z,70.60
2018-09-09T17:55:59.156Z,70.90
2018-09-09T17:58:31.873Z,70.70
2018-09-09T18:01:03.185Z,70.90
2018-09-09T18:03:32.010Z,71.30
2018-09-09T18:06:01.062Z,71.30
2018-09-09T18:08:34.617Z,71.80
2018-09-09T18:11:04.584Z,72.00
2018-09-09T18:13:34.469Z,72.40
2018-09-09T18:16:03.208Z,72.50
2018-09-09T18:18:31.960Z,72.70
2018-09-09T18:21:00.776Z,73.20
2018-09-09T18:23:29.391Z,73.60
2018-09-09T18:25:58.027Z,73.80
2018-09-09T18:28:26.680Z,73.90
2018-09-09T18:30:55.368Z,73.90
2018-09-09T18:33:23.979Z,74.20
2018-09-09T18:35:52.612Z,74.40
2018-09-09T18:38:21.248Z,74.50
2018-09-09T18:40:49.888Z,74.70
2018-09-09T18:43:18.523Z,74.70
2018-09-09T18:45:47.140Z,75.10
2018-09-09T18:48:15.752Z,75.30
2018-09-09T18:50:44.396Z,75.50
2018-09-09T18:53:13.023Z,75.90
2018-09-09T18:55:41.697Z,75.80
2018-09-09T18:58:10.895Z,76.20
2018-09-09T19:00:41.659Z,76.30
2018-09-09T19:03:10.290Z,76.50
2018-09-09T19:05:54.722Z,76.80
2018-09-09T19:08:32.820Z,76.90
2018-09-09T19:11:04.917Z,77.20
2018-09-09T19:13:33.615Z,77.40
2018-09-09T19:16:03.086Z,77.40
2018-09-09T19:18:34.976Z,77.50
2018-09-09T19:21:03.705Z,77.90
2018-09-09T19:23:32.320Z,77.90
2018-09-09T19:26:00.941Z,78.40
2018-09-09T19:28:29.617Z,78.50
2018-09-09T19:31:15.373Z,78.60
2018-09-09T19:34:13.806Z,78.60
2018-09-09T19:36:48.388Z,78.80
2018-09-09T19:39:17.409Z,79.70
2018-09-09T19:41:46.728Z,79.20
2018-09-09T19:44:15.490Z,79.60
2018-09-09T19:46:44.092Z,79.70
2018-09-09T19:49:12.811Z,80.00
2018-09-09T19:51:41.428Z,80.00
2018-09-09T19:54:10.100Z,79.90
2018-09-09T19:56:38.740Z,79.90
2018-09-09T19:59:07.464Z,80.00
2018-09-09T20:01:36.104Z,80.10
2018-09-09T20:04:04.808Z,80.40
2018-09-09T20:06:33.452Z,80.90
2018-09-09T20:09:02.144Z,81.30
2018-09-09T20:11:30.801Z,81.60
2018-09-09T20:13:59.461Z,81.80
2018-09-09T20:16:28.127Z,82.30
2018-09-09T20:18:56.866Z,82.40
2018-09-09T20:21:26.604Z,82.80
2018-09-09T20:23:55.240Z,82.40
2018-09-09T20:26:23.851Z,82.80
2018-09-09T20:28:52.492Z,83.00
2018-09-09T20:31:21.134Z,83.10
2018-09-09T20:33:49.888Z,83.10
2018-09-09T20:36:18.501Z,83.10
2018-09-09T20:38:47.163Z,83.60
2018-09-09T20:41:15.779Z,84.20
2018-09-09T20:43:44.452Z,84.80
2018-09-09T20:46:13.169Z,85.90
2018-09-09T20:48:41.827Z,86.40
2018-09-09T20:51:10.472Z,87.00
2018-09-09T20:53:39.126Z,87.50
2018-09-09T20:56:07.757Z,87.40
2018-09-09T20:58:36.396Z,87.80
2018-09-09T21:01:05.576Z,88.30
2018-09-09T21:03:34.212Z,88.70
2018-09-09T21:06:04.141Z,89.00
2018-09-09T21:08:32.798Z,88.80
2018-09-09T21:11:01.408Z,89.10
2018-09-09T21:13:30.052Z,89.20
2018-09-09T21:15:58.664Z,89.20
2018-09-09T21:18:27.352Z,89.70
2018-09-09T21:20:55.957Z,89.60
2018-09-09T21:23:24.565Z,89.40
2018-09-09T21:25:53.358Z,89.30
2018-09-09T21:28:25.157Z,89.50
2018-09-09T21:30:53.775Z,89.90
2018-09-09T21:33:22.388Z,90.20
2018-09-09T21:35:51.217Z,90.50
2018-09-09T21:38:19.812Z,90.70
2018-09-09T21:40:48.412Z,90.70
2018-09-09T21:43:17.028Z,90.90
2018-09-09T21:45:45.665Z,90.80
2018-09-09T21:48:14.312Z,91.20
2018-09-09T21:50:42.920Z,91.60
2018-09-09T21:53:11.530Z,91.60
2018-09-09T21:55:40.162Z,91.70
2018-09-09T21:58:08.768Z,91.90
2018-09-09T22:00:43.710Z,91.90
2018-09-09T22:03:13.008Z,92.00
2018-09-09T22:05:41.628Z,92.40
2018-09-09T22:08:10.265Z,92.20
2018-09-09T22:10:38.881Z,92.40
2018-09-09T22:13:07.565Z,92.30
2018-09-09T22:15:36.299Z,92.50
2018-09-09T22:18:04.920Z,92.70
2018-09-09T22:20:33.552Z,93.00
2018-09-09T22:23:03.904Z,93.20
2018-09-09T22:25:32.593Z,93.50
2018-09-09T22:28:01.358Z,93.30
2018-09-09T22:30:30.201Z,93.20
2018-09-09T22:32:58.835Z,92.80
2018-09-09T22:35:46.745Z,93.10
2018-09-09T22:38:34.839Z,93.20
2018-09-09T22:41:10.581Z,93.50
2018-09-09T22:43:40.175Z,93.70
2018-09-09T22:46:17.080Z,93.80
2018-09-09T22:48:50.331Z,93.60
2018-09-09T22:54:03.997Z,94.00
2018-09-09T22:56:32.893Z,94.30
2018-09-09T22:59:03.355Z,94.50
2018-09-09T23:01:41.090Z,94.70
2018-09-09T23:04:09.980Z,94.70
2018-09-09T23:06:44.273Z,94.50
2018-09-09T23:09:14.498Z,94.60
2018-09-09T23:14:46.972Z,93.50
2018-09-09T23:17:23.304Z,93.30
2018-09-09T23:20:00.714Z,93.50
2018-09-09T23:22:29.883Z,93.50
2018-09-09T23:27:56.403Z,93.50
2018-09-09T23:30:27.454Z,93.70
2018-09-09T23:32:59.680Z,93.80
2018-09-09T23:35:39.370Z,93.90
2018-09-09T23:38:17.448Z,93.90
2018-09-09T23:40:57.663Z,94.10
2018-09-09T23:46:34.431Z,94.60
2018-09-09T23:49:26.772Z,94.80
2018-09-09T23:52:13.192Z,94.90
2018-09-09T23:54:50.364Z,95.00
2018-09-09T23:57:25.983Z,95.00
2018-09-09T23:59:59.668Z,95.20
